Time;durP1;ratioP1;P1;durP2;ratioP2;P2;SDS_P1;SDS_P2;PMS_P1;PMS_P2;Temp;Humidity;BMP_temperature;BMP_pressure;BME280_temperature;BME280_humidity;BME280_pressure;Samples;Min_cycle;Max_cycle;Signal;HPM_P1;HPM_P2
2022/11/28 00:02:09;;;;;;;38.65;35.95;;;11.80;99.90;;;;;;4991884;28;20054;-81
2022/11/28 00:04:35;;;;;;;38.47;35.50;;;11.90;99.90;;;;;;4992026;28;20375;-81
2022/11/28 00:07:01;;;;;;;36.40;33.72;;;11.80;99.90;;;;;;4970598;28;20035;-81
2022/11/28 00:09:27;;;;;;;36.22;33.55;;;11.90;99.90;;;;;;5010522;28;20030;-81
2022/11/28 00:11:53;;;;;;;39.35;36.08;;;11.90;99.90;;;;;;4997695;28;20034;-81
2022/11/28 00:14:20;;;;;;;39.17;36.00;;;11.90;99.90;;;;;;5026752;28;20026;-81
2022/11/28 00:16:46;;;;;;;35.40;32.90;;;11.90;99.90;;;;;;5006750;28;20041;-81
2022/11/28 00:19:12;;;;;;;36.83;33.45;;;11.80;99.90;;;;;;4991719;28;20046;-81
2022/11/28 00:21:38;;;;;;;38.08;34.85;;;11.90;99.90;;;;;;4997997;28;20051;-81
2022/11/28 00:24:05;;;;;;;37.03;34.15;;;11.80;99.90;;;;;;4972608;28;20037;-81
2022/11/28 00:26:36;;;;;;;36.67;33.88;;;11.80;99.90;;;;;;4997714;28;20408;-81
2022/11/28 00:29:02;;;;;;;39.38;36.38;;;11.80;99.90;;;;;;5019755;28;20045;-81
2022/11/28 00:31:31;;;;;;;37.05;34.15;;;11.80;99.90;;;;;;4958514;28;20443;-81
2022/11/28 00:33:57;;;;;;;39.65;36.65;;;11.90;99.90;;;;;;4990283;28;20030;-81
2022/11/28 00:36:23;;;;;;;38.75;35.72;;;11.90;99.90;;;;;;4991669;28;20061;-81
2022/11/28 00:38:50;;;;;;;38.83;35.80;;;11.80;99.90;;;;;;5007677;28;20030;-81
2022/11/28 00:41:18;;;;;;;39.90;36.88;;;11.90;99.90;;;;;;4991252;28;20046;-81
2022/11/28 00:43:44;;;;;;;39.28;36.33;;;11.90;99.90;;;;;;4992045;28;20030;-81
2022/11/28 00:46:11;;;;;;;40.67;37.05;;;11.90;99.90;;;;;;4957831;28;20034;-81
2022/11/28 00:48:37;;;;;;;39.30;36.15;;;11.90;99.90;;;;;;5009719;28;20031;-81
2022/11/28 00:51:20;;;;;;;39.88;36.83;;;11.90;99.90;;;;;;5010462;28;20049;-81
2022/11/28 00:53:47;;;;;;;40.13;36.80;;;11.90;99.90;;;;;;4981416;28;20069;-81
2022/11/28 00:56:15;;;;;;;39.63;36.30;;;11.90;99.90;;;;;;4989018;28;20091;-81
2022/11/28 00:58:41;;;;;;;38.85;35.85;;;11.80;99.90;;;;;;5011291;28;20033;-81
2022/11/28 01:01:09;;;;;;;38.00;35.03;;;11.80;99.90;;;;;;4991424;28;20038;-81
2022/11/28 01:03:35;;;;;;;39.35;35.95;;;11.70;99.90;;;;;;4995797;28;20042;-81
2022/11/28 01:06:01;;;;;;;38.75;35.53;;;11.70;99.90;;;;;;5011932;28;20400;-81
2022/11/28 01:08:27;;;;;;;37.88;34.67;;;11.60;99.90;;;;;;5011689;28;20039;-81
2022/11/28 01:10:53;;;;;;;36.28;33.25;;;11.60;99.90;;;;;;4993683;28;20391;-81
2022/11/28 01:13:19;;;;;;;39.80;36.58;;;11.70;99.90;;;;;;4994687;28;20482;-81
2022/11/28 01:15:45;;;;;;;40.83;37.17;;;11.70;99.90;;;;;;4995053;28;20045;-81
2022/11/28 01:18:11;;;;;;;45.33;41.20;;;11.70;99.90;;;;;;5005656;28;20055;-81
2022/11/28 01:20:38;;;;;;;38.45;34.95;;;11.70;99.90;;;;;;4991609;28;20456;-81
2022/11/28 01:23:04;;;;;;;41.47;37.90;;;11.70;99.90;;;;;;4995489;28;20046;-81
2022/11/28 01:25:30;;;;;;;43.42;40.08;;;11.70;99.90;;;;;;4994225;28;20410;-81
2022/11/28 01:27:56;;;;;;;45.60;41.75;;;11.70;99.90;;;;;;4978271;28;20030;-81
2022/11/28 01:30:22;;;;;;;49.53;44.95;;;11.70;99.90;;;;;;4993846;28;20049;-81
2022/11/28 01:32:48;;;;;;;50.25;46.55;;;11.70;99.90;;;;;;5026739;28;20046;-81
2022/11/28 01:35:15;;;;;;;49.75;45.50;;;11.70;99.90;;;;;;5011143;28;20034;-81
2022/11/28 01:37:41;;;;;;;50.35;46.50;;;11.70;99.90;;;;;;4994448;28;20027;-81
2022/11/28 01:40:07;;;;;;;51.22;47.38;;;11.70;99.90;;;;;;5011182;28;20034;-81
2022/11/28 01:42:33;;;;;;;52.38;47.70;;;11.60;99.90;;;;;;4978692;28;20043;-81
2022/11/28 01:45:04;;;;;;;46.80;43.38;;;11.70;99.90;;;;;;4986777;28;20033;-81
2022/11/28 01:47:30;;;;;;;49.17;45.15;;;11.70;99.90;;;;;;4993630;28;20046;-81
2022/11/28 01:49:56;;;;;;;51.33;47.20;;;11.70;99.90;;;;;;4977237;28;20427;-81
2022/11/28 01:52:22;;;;;;;51.10;46.65;;;11.70;99.90;;;;;;5010209;28;20308;-81
2022/11/28 01:54:51;;;;;;;48.42;43.90;;;11.70;99.90;;;;;;5007221;28;20027;-81
2022/11/28 01:57:19;;;;;;;51.33;46.67;;;11.70;99.90;;;;;;5009932;28;20026;-81
2022/11/28 02:00:05;;;;;;;49.97;44.70;;;11.60;99.90;;;;;;4993431;28;20037;-81
2022/11/28 02:02:36;;;;;;;50.30;46.50;;;11.50;99.90;;;;;;4965312;28;20051;-81
2022/11/28 02:05:03;;;;;;;;;;;11.50;99.90;;;;;;4958931;28;20039;-81
2022/11/28 02:07:29;;;;;;;53.17;49.30;;;11.60;99.90;;;;;;4937027;29;19910;-81
2022/11/28 02:09:55;;;;;;;49.90;45.78;;;11.60;99.90;;;;;;4971482;28;20065;-81
2022/11/28 02:12:48;;;;;;;50.70;46.88;;;11.60;99.90;;;;;;4973939;28;20042;-81
2022/11/28 02:15:36;;;;;;;53.50;48.83;;;11.60;99.90;;;;;;4933070;28;20144;-81
2022/11/28 02:18:05;;;;;;;50.83;46.92;;;11.50;99.90;;;;;;4962157;28;20134;-81
2022/11/28 02:20:56;;;;;;;49.20;44.78;;;11.40;99.90;;;;;;4966381;28;20050;-81
2022/11/28 02:23:40;;;;;;;48.00;43.38;;;11.40;99.90;;;;;;4968713;28;20050;-82
2022/11/28 02:26:37;;;;;;;50.05;45.67;;;11.50;99.90;;;;;;4952973;28;20076;-81
2022/11/28 02:29:03;;;;;;;51.50;46.92;;;11.40;99.90;;;;;;4955002;28;20053;-81
2022/11/28 02:31:35;;;;;;;48.80;44.72;;;11.40;99.90;;;;;;4972898;28;20047;-81
2022/11/28 02:34:04;;;;;;;45.38;41.42;;;11.40;99.90;;;;;;4968092;28;20026;-81
2022/11/28 02:36:54;;;;;;;42.90;39.47;;;11.30;99.90;;;;;;4921171;29;20047;-81
2022/11/28 02:39:50;;;;;;;38.75;33.60;;;11.30;99.90;;;;;;4950911;28;20045;-81
2022/11/28 02:42:27;;;;;;;41.13;36.88;;;11.40;99.90;;;;;;5003260;28;20047;-81
2022/11/28 02:45:19;;;;;;;40.72;36.92;;;11.40;99.90;;;;;;4961755;28;20399;-81
2022/11/28 02:47:54;;;;;;;40.83;36.65;;;11.40;99.90;;;;;;4991914;28;20049;-81
2022/11/28 02:50:29;;;;;;;41.17;37.13;;;11.30;99.90;;;;;;4961813;28;20391;-81
2022/11/28 02:53:02;;;;;;;35.90;32.75;;;11.30;99.90;;;;;;4977205;28;20034;-81
2022/11/28 02:55:28;;;;;;;40.70;36.13;;;11.30;99.90;;;;;;4957726;28;20042;-81
2022/11/28 02:57:54;;;;;;;37.30;32.58;;;11.20;99.90;;;;;;4992578;28;20038;-81
2022/11/28 03:00:30;;;;;;;45.65;33.97;;;11.20;99.90;;;;;;4992273;28;20030;-82
2022/11/28 03:03:13;;;;;;;35.70;32.20;;;11.10;99.90;;;;;;4980416;28;20053;-82
2022/11/28 03:05:45;;;;;;;45.78;31.58;;;11.10;99.90;;;;;;4973710;28;20383;-81
2022/11/28 03:08:11;;;;;;;35.03;31.23;;;11.10;99.90;;;;;;4986004;28;20056;-82
2022/11/28 03:10:46;;;;;;;38.47;31.00;;;11.10;99.90;;;;;;4992961;28;20053;-81
2022/11/28 03:13:37;;;;;;;50.90;30.30;;;11.10;99.90;;;;;;5008737;28;20034;-82
2022/11/28 03:16:13;;;;;;;36.42;29.58;;;11.00;99.90;;;;;;4990065;28;20480;-82
2022/11/28 03:19:00;;;;;;;45.28;30.02;;;11.00;99.90;;;;;;4992124;28;20506;-82
2022/11/28 03:21:35;;;;;;;35.65;28.88;;;11.00;99.90;;;;;;4939765;28;20039;-82
2022/11/28 03:24:26;;;;;;;40.78;30.08;;;11.00;99.90;;;;;;4951719;28;20055;-81
2022/11/28 03:26:56;;;;;;;39.60;28.75;;;11.10;99.90;;;;;;4954230;28;20043;-81
2022/11/28 03:29:35;;;;;;;35.38;29.88;;;11.00;99.90;;;;;;4968804;28;20063;-82
2022/11/28 03:32:10;;;;;;;33.55;30.27;;;11.00;99.90;;;;;;4953686;28;20031;-82
2022/11/28 03:34:38;;;;;;;39.40;30.35;;;11.00;99.90;;;;;;4950851;28;20298;-82
2022/11/28 03:37:07;;;;;;;37.17;32.13;;;11.00;99.90;;;;;;4950410;29;20042;-81
2022/11/28 03:39:36;;;;;;;39.55;32.00;;;11.00;99.90;;;;;;4954534;28;20039;-82
2022/11/28 03:42:11;;;;;;;43.28;31.63;;;11.00;99.90;;;;;;4958643;28;20038;-82
2022/11/28 03:44:53;;;;;;;44.50;30.50;;;11.00;99.90;;;;;;4948512;28;20556;-81
2022/11/28 03:47:21;;;;;;;46.00;32.28;;;10.80;99.90;;;;;;4940878;28;20054;-81
2022/11/28 03:49:50;;;;;;;36.70;31.80;;;10.80;99.90;;;;;;4951934;28;20031;-81
2022/11/28 03:52:28;;;;;;;45.67;32.08;;;10.80;99.90;;;;;;4957339;28;20058;-82
2022/11/28 03:55:24;;;;;;;42.95;29.33;;;10.80;99.90;;;;;;4948318;28;20039;-82
2022/11/28 03:57:57;;;;;;;42.25;32.45;;;10.80;99.90;;;;;;4889142;29;20039;-81
2022/11/28 04:00:24;;;;;;;41.10;35.40;;;10.80;99.90;;;;;;4925813;28;20370;-82
2022/11/28 04:03:06;;;;;;;42.30;33.92;;;10.80;99.90;;;;;;4902648;29;20059;-82
2022/11/28 04:06:03;;;;;;;40.92;33.60;;;10.90;99.90;;;;;;4936548;29;20154;-81
2022/11/28 04:08:37;;;;;;;41.67;31.73;;;10.90;99.90;;;;;;4925097;29;20043;-82
2022/11/28 04:11:14;;;;;;;38.63;32.50;;;10.90;99.90;;;;;;4895307;29;20488;-82
2022/11/28 04:14:02;;;;;;;42.45;31.48;;;10.90;99.90;;;;;;4917142;29;20031;-82
2022/11/28 04:16:35;;;;;;;36.92;30.48;;;10.90;99.90;;;;;;4932794;29;20497;-81
2022/11/28 04:19:16;;;;;;;37.28;31.50;;;10.90;99.90;;;;;;4918188;28;20042;-81
2022/11/28 04:22:01;;;;;;;35.80;30.58;;;10.80;99.90;;;;;;4945893;29;20178;-80
2022/11/28 04:24:32;;;;;;;36.13;30.38;;;10.80;99.90;;;;;;4905523;29;20055;-79
2022/11/28 04:27:01;;;;;;;42.17;31.05;;;10.80;99.90;;;;;;4919946;29;20046;-79
2022/11/28 04:29:29;;;;;;;37.42;34.22;;;10.80;99.90;;;;;;4929810;29;20066;-80
2022/11/28 04:31:55;;;;;;;38.38;34.35;;;10.90;99.90;;;;;;4887560;29;20050;-80
2022/11/28 04:34:21;;;;;;;37.30;31.33;;;10.90;99.90;;;;;;4916249;28;20039;-81
2022/11/28 04:36:47;;;;;;;39.40;33.88;;;10.90;99.90;;;;;;5004499;28;20042;-79
2022/11/28 04:39:23;;;;;;;33.70;25.55;;;11.00;99.90;;;;;;4994889;28;20042;-85
2022/11/28 04:42:01;;;;;;;34.33;30.00;;;10.90;99.90;;;;;;4961057;28;20407;-83
2022/11/28 04:44:34;;;;;;;31.83;26.02;;;11.00;99.90;;;;;;4991947;28;20117;-83
2022/11/28 04:47:00;;;;;;;35.20;24.42;;;11.00;99.90;;;;;;4959241;28;20403;-83
2022/11/28 04:49:26;;;;;;;31.35;26.27;;;10.90;99.90;;;;;;4958855;28;20038;-83
2022/11/28 04:52:13;;;;;;;762.88;72.57;;;10.90;99.90;;;;;;4991988;28;20395;-84
2022/11/28 04:54:50;;;;;;;33.63;26.58;;;11.00;99.90;;;;;;4991361;28;20361;-84
2022/11/28 04:57:31;;;;;;;32.28;22.25;;;10.90;99.90;;;;;;4975423;28;20034;-84
2022/11/28 04:59:57;;;;;;;32.83;25.92;;;10.90;99.90;;;;;;4992112;28;20026;-83
2022/11/28 05:02:23;;;;;;;32.45;23.95;;;10.90;99.90;;;;;;4974366;28;20034;-83
2022/11/28 05:04:54;;;;;;;31.42;25.50;;;10.80;99.90;;;;;;4958628;28;20030;-84
2022/11/28 05:07:20;;;;;;;31.58;27.33;;;10.90;99.90;;;;;;4991739;28;20042;-84
2022/11/28 05:09:47;;;;;;;1086.47;93.95;;;10.80;99.90;;;;;;5007623;28;20030;-84
2022/11/28 05:12:13;;;;;;;32.60;25.42;;;10.80;99.90;;;;;;5007197;28;20026;-83
2022/11/28 05:14:39;;;;;;;38.53;24.27;;;10.80;99.90;;;;;;5006464;28;20502;-84
2022/11/28 05:17:06;;;;;;;33.45;25.80;;;10.70;99.90;;;;;;5010924;28;20426;-83
2022/11/28 05:19:32;;;;;;;32.38;24.98;;;10.80;99.90;;;;;;4987495;28;20501;-84
2022/11/28 05:21:58;;;;;;;33.95;24.23;;;10.70;99.90;;;;;;4975335;28;20388;-83
2022/11/28 05:24:24;;;;;;;38.03;24.55;;;10.70;99.90;;;;;;4991162;28;20043;-83
2022/11/28 05:26:50;;;;;;;264.98;36.17;;;10.70;99.90;;;;;;4972819;28;20407;-84
2022/11/28 05:29:17;;;;;;;39.83;25.65;;;10.70;99.90;;;;;;4988039;28;20039;-84
2022/11/28 05:31:43;;;;;;;30.90;24.60;;;10.70;99.90;;;;;;4971482;28;20026;-84
2022/11/28 05:34:09;;;;;;;28.48;24.20;;;10.80;99.90;;;;;;4976935;28;20036;-84
2022/11/28 05:36:35;;;;;;;28.80;23.40;;;10.80;99.90;;;;;;4992285;28;20037;-83
2022/11/28 05:39:01;;;;;;;38.03;23.55;;;10.80;99.90;;;;;;5010398;28;20045;-83
2022/11/28 05:41:29;;;;;;;33.80;22.90;;;10.80;99.90;;;;;;4995139;28;20034;-84
2022/11/28 05:43:56;;;;;;;33.05;23.60;;;10.80;99.90;;;;;;4994805;28;20492;-84
2022/11/28 05:46:22;;;;;;;33.42;24.75;;;10.70;99.90;;;;;;5018175;28;20398;-84
2022/11/28 05:48:48;;;;;;;27.77;22.83;;;10.80;99.90;;;;;;4995124;28;20034;-84
2022/11/28 05:51:14;;;;;;;42.03;25.75;;;10.70;99.90;;;;;;5021231;28;20034;-84
2022/11/28 05:53:40;;;;;;;44.03;23.35;;;10.70;99.90;;;;;;5018845;28;20031;-84
2022/11/28 05:56:13;;;;;;;303.80;38.28;;;10.70;99.90;;;;;;4979109;28;20046;-84
2022/11/28 05:58:40;;;;;;;34.47;22.77;;;10.70;99.90;;;;;;4994066;28;20379;-84
2022/11/28 06:01:17;;;;;;;35.47;23.17;;;10.60;99.90;;;;;;5026464;28;20039;-84
2022/11/28 06:03:43;;;;;;;36.58;20.95;;;10.60;99.90;;;;;;5026795;28;20038;-83
2022/11/28 06:06:16;;;;;;;32.80;20.70;;;10.50;99.90;;;;;;5010804;28;20033;-83
2022/11/28 06:08:42;;;;;;;53.10;32.90;;;10.40;99.90;;;;;;5010364;28;20030;-83
2022/11/28 06:11:08;;;;;;;49.08;32.20;;;10.40;99.90;;;;;;5010696;28;20038;-84
2022/11/28 06:13:35;;;;;;;52.17;35.83;;;10.40;99.90;;;;;;5006550;28;20030;-85
2022/11/28 06:16:01;;;;;;;51.88;32.45;;;10.40;99.90;;;;;;4993353;28;20033;-84
2022/11/28 06:18:27;;;;;;;49.55;29.73;;;10.30;99.90;;;;;;4978395;28;20495;-84
2022/11/28 06:20:54;;;;;;;70.10;33.10;;;10.20;99.90;;;;;;4993563;28;20022;-85
2022/11/28 06:23:20;;;;;;;76.50;31.85;;;10.20;99.90;;;;;;4943548;28;20404;-85
2022/11/28 06:25:46;;;;;;;37.90;22.33;;;10.10;99.90;;;;;;5007946;28;20051;-84
2022/11/28 06:28:12;;;;;;;359.52;123.35;;;10.10;99.90;;;;;;4999629;28;20045;-84
2022/11/28 06:30:38;;;;;;;95.63;50.00;;;10.10;99.90;;;;;;4991963;28;20071;-80
2022/11/28 06:33:04;;;;;;;57.50;37.03;;;10.20;99.90;;;;;;4988567;28;20041;-80
2022/11/28 06:35:30;;;;;;;42.03;28.08;;;10.20;99.90;;;;;;5003603;28;20034;-80
2022/11/28 06:37:56;;;;;;;42.40;27.80;;;10.20;99.90;;;;;;5009785;28;20053;-79
2022/11/28 06:40:22;;;;;;;33.58;23.70;;;10.30;99.90;;;;;;4995637;28;20042;-79
2022/11/28 06:42:49;;;;;;;34.22;24.92;;;10.30;99.90;;;;;;4993007;28;20034;-79
2022/11/28 06:45:16;;;;;;;31.55;23.15;;;10.30;99.90;;;;;;4992566;28;20037;-80
2022/11/28 06:47:42;;;;;;;32.92;24.02;;;10.30;99.90;;;;;;5010435;28;20046;-80
2022/11/28 06:50:09;;;;;;;34.38;26.42;;;10.30;99.90;;;;;;4976817;28;20034;-80
2022/11/28 06:52:35;;;;;;;61.08;25.15;;;10.30;99.90;;;;;;4994611;28;20037;-80
2022/11/28 06:55:01;;;;;;;67.47;52.20;;;10.40;99.90;;;;;;4976557;28;20042;-80
2022/11/28 06:57:27;;;;;;;46.15;36.30;;;10.40;99.90;;;;;;4975860;28;20042;-80
2022/11/28 06:59:53;;;;;;;39.97;29.08;;;10.40;99.90;;;;;;5024784;28;20035;-81
2022/11/28 07:02:21;;;;;;;41.17;30.23;;;10.40;99.90;;;;;;4991904;28;20749;-80
2022/11/28 07:04:47;;;;;;;38.03;25.40;;;10.40;99.90;;;;;;4994758;28;20044;-86
2022/11/28 07:07:13;;;;;;;33.60;24.35;;;10.30;99.90;;;;;;4993093;28;20034;-85
2022/11/28 07:09:39;;;;;;;29.30;24.63;;;10.40;99.90;;;;;;4976957;28;20510;-85
2022/11/28 07:12:05;;;;;;;526.65;52.38;;;10.40;99.90;;;;;;4961257;28;20045;-85
2022/11/28 07:14:32;;;;;;;648.90;53.30;;;10.40;99.90;;;;;;4980522;28;20046;-86
2022/11/28 07:16:58;;;;;;;27.67;21.63;;;10.40;99.90;;;;;;4993189;28;20050;-86
2022/11/28 07:19:25;;;;;;;24.38;21.85;;;10.40;99.90;;;;;;5011636;28;20038;-87
2022/11/28 07:21:51;;;;;;;29.30;23.05;;;10.30;99.90;;;;;;4993553;28;20038;-86
2022/11/28 07:24:17;;;;;;;27.08;22.23;;;10.30;99.90;;;;;;4993217;28;20050;-86
2022/11/28 07:26:44;;;;;;;34.17;23.42;;;10.30;99.90;;;;;;5008131;28;20046;-86
2022/11/28 07:29:17;;;;;;;33.20;22.00;;;10.30;99.90;;;;;;4993116;28;20049;-85
2022/11/28 07:31:43;;;;;;;581.38;60.15;;;10.30;99.90;;;;;;4992684;28;20030;-87
2022/11/28 07:34:09;;;;;;;34.22;23.73;;;10.30;99.90;;;;;;5008992;28;20037;-87
2022/11/28 07:36:35;;;;;;;32.33;23.20;;;10.30;99.90;;;;;;5009397;28;20387;-87
2022/11/28 07:39:02;;;;;;;27.30;22.13;;;10.30;99.90;;;;;;4993004;28;20480;-87
2022/11/28 07:41:29;;;;;;;29.85;21.30;;;10.30;99.90;;;;;;5008150;28;20037;-86
2022/11/28 07:43:57;;;;;;;32.80;29.38;;;10.20;99.90;;;;;;4993869;28;20038;-86
2022/11/28 07:46:23;;;;;;;39.00;34.47;;;10.00;99.90;;;;;;4993471;28;20035;-86
2022/11/28 07:48:49;;;;;;;41.80;35.00;;;9.90;99.90;;;;;;5008828;28;20522;-88
2022/11/28 07:51:20;;;;;;;38.78;34.80;;;10.00;99.90;;;;;;4991596;28;20038;-87
2022/11/28 07:53:46;;;;;;;37.28;34.17;;;9.90;99.90;;;;;;4960202;28;20502;-87
2022/11/28 07:56:14;;;;;;;36.20;32.78;;;9.90;99.90;;;;;;4973987;28;20491;-87
2022/11/28 07:58:41;;;;;;;33.33;30.80;;;9.90;99.90;;;;;;4977771;28;20047;-88
2022/11/28 08:01:12;;;;;;;36.97;33.75;;;9.90;99.90;;;;;;4979546;28;20049;-86
2022/11/28 08:03:38;;;;;;;37.88;34.97;;;9.90;99.90;;;;;;5005162;28;20050;-86
2022/11/28 08:06:04;;;;;;;36.40;33.55;;;10.00;99.90;;;;;;5005552;28;20031;-85
2022/11/28 08:08:30;;;;;;;35.15;32.60;;;10.00;99.90;;;;;;4981369;28;20042;-90
2022/11/28 08:11:00;;;;;;;37.90;34.72;;;10.00;99.90;;;;;;5005295;28;20190;-87
2022/11/28 08:13:26;;;;;;;37.33;34.05;;;10.00;99.90;;;;;;4992532;28;20034;-85
2022/11/28 08:15:52;;;;;;;36.08;33.13;;;10.10;99.90;;;;;;4991969;28;20542;-90
2022/11/28 08:18:18;;;;;;;43.20;38.70;;;10.10;99.90;;;;;;4987872;28;20278;-88
2022/11/28 08:20:45;;;;;;;36.15;33.45;;;10.10;99.90;;;;;;5004965;28;20042;-88
2022/11/28 08:23:11;;;;;;;36.95;33.88;;;10.20;99.90;;;;;;5005360;28;20499;-89
2022/11/28 08:25:37;;;;;;;43.63;39.63;;;10.30;99.90;;;;;;4987148;28;20043;-89
2022/11/28 08:28:03;;;;;;;42.00;38.00;;;10.30;99.90;;;;;;4989448;28;20043;-89
2022/11/28 08:30:29;;;;;;;36.55;33.40;;;10.20;99.90;;;;;;4991664;28;20034;-91
2022/11/28 08:32:55;;;;;;;37.42;33.55;;;10.30;99.90;;;;;;5009806;28;20022;-91
2022/11/28 08:35:21;;;;;;;38.50;35.13;;;10.30;99.90;;;;;;4997244;28;20057;-86
2022/11/28 08:37:47;;;;;;;38.40;35.10;;;10.40;99.90;;;;;;4986891;28;20042;-88
2022/11/28 08:40:14;;;;;;;34.15;31.40;;;10.30;99.90;;;;;;4976024;28;20337;-87
2022/11/28 08:42:40;;;;;;;33.70;31.33;;;10.30;99.90;;;;;;4990622;28;20030;-86
2022/11/28 08:45:06;;;;;;;33.00;30.88;;;10.30;99.90;;;;;;5007321;28;20065;-87
2022/11/28 08:47:32;;;;;;;34.80;31.95;;;10.30;99.90;;;;;;4997373;28;20041;-85
2022/11/28 08:49:58;;;;;;;34.60;32.05;;;10.40;99.90;;;;;;5030400;28;20018;-87
2022/11/28 08:52:25;;;;;;;36.40;33.95;;;10.40;99.90;;;;;;4978959;28;20031;-86
2022/11/28 08:54:51;;;;;;;37.35;34.03;;;10.50;99.90;;;;;;4999635;28;20433;-89
2022/11/28 08:57:17;;;;;;;33.33;30.80;;;10.50;99.90;;;;;;5004432;28;20043;-84
2022/11/28 08:59:43;;;;;;;34.90;32.80;;;10.50;99.90;;;;;;4989100;28;20061;-89
2022/11/28 09:02:10;;;;;;;31.65;29.55;;;10.60;99.90;;;;;;4974791;28;20039;-86
2022/11/28 09:04:36;;;;;;;31.83;29.85;;;10.70;99.90;;;;;;4975551;28;20049;-85
2022/11/28 09:07:02;;;;;;;30.20;28.15;;;10.80;99.90;;;;;;4991648;28;20042;-85
2022/11/28 09:09:28;;;;;;;26.63;24.83;;;10.80;99.90;;;;;;4974006;28;20046;-86
2022/11/28 09:11:54;;;;;;;26.90;24.80;;;10.80;99.90;;;;;;5010975;28;20034;-86
2022/11/28 09:14:20;;;;;;;25.45;23.45;;;10.90;99.90;;;;;;5008902;28;20033;-86
2022/11/28 09:16:46;;;;;;;25.00;23.23;;;10.90;99.90;;;;;;4978252;28;20046;-85
2022/11/28 09:19:13;;;;;;;20.63;19.02;;;10.90;99.90;;;;;;4995904;28;20030;-85
2022/11/28 09:21:40;;;;;;;22.38;20.48;;;10.80;99.90;;;;;;5031019;28;20206;-85
2022/11/28 09:24:07;;;;;;;22.33;20.52;;;10.80;99.90;;;;;;4998349;28;20080;-87
2022/11/28 09:26:33;;;;;;;24.45;22.70;;;10.80;99.90;;;;;;4996995;28;20050;-89
2022/11/28 09:28:59;;;;;;;27.73;25.83;;;10.80;99.90;;;;;;4981684;28;20065;-86
2022/11/28 09:31:25;;;;;;;28.17;26.35;;;10.80;99.90;;;;;;4979639;28;20054;-86
2022/11/28 09:33:52;;;;;;;22.70;20.77;;;10.90;99.90;;;;;;4993647;28;20050;-86
2022/11/28 09:36:19;;;;;;;22.85;21.13;;;10.80;99.90;;;;;;4978448;28;20050;-89
2022/11/28 09:38:45;;;;;;;25.45;23.67;;;10.70;99.90;;;;;;4969811;28;20060;-84
2022/11/28 09:41:23;;;;;;;24.33;22.75;;;10.70;99.90;;;;;;4968838;28;20301;-86
2022/11/28 09:43:51;;;;;;;21.95;20.33;;;10.70;99.90;;;;;;4984486;28;20050;-87
2022/11/28 09:46:20;;;;;;;23.88;21.92;;;10.60;99.90;;;;;;4992465;28;20400;-85
2022/11/28 09:48:50;;;;;;;26.88;24.70;;;10.70;99.90;;;;;;4968583;28;20468;-85
2022/11/28 09:51:43;;;;;;;21.50;20.02;;;10.70;99.90;;;;;;4969544;28;20468;-84
2022/11/28 09:54:16;;;;;;;20.33;18.70;;;10.80;99.90;;;;;;4973574;28;20039;-83
2022/11/28 09:56:44;;;;;;;21.23;19.65;;;10.80;99.90;;;;;;4954162;28;20519;-84
2022/11/28 09:59:24;;;;;;;22.23;19.90;;;10.90;99.90;;;;;;5001355;28;20376;-85
2022/11/28 10:01:59;;;;;;;19.80;18.38;;;11.00;99.90;;;;;;5004615;28;20034;-86
2022/11/28 10:04:49;;;;;;;21.77;19.92;;;11.10;99.90;;;;;;5011914;28;20050;-85
2022/11/28 10:07:40;;;;;;;20.08;18.55;;;11.10;99.90;;;;;;5005942;28;20511;-86
2022/11/28 10:10:10;;;;;;;19.63;17.67;;;11.10;99.90;;;;;;4984336;28;20511;-86
2022/11/28 10:12:40;;;;;;;18.53;17.03;;;11.20;99.90;;;;;;4992986;28;20479;-86
2022/11/28 10:15:12;;;;;;;19.00;17.55;;;11.20;99.90;;;;;;4992216;28;20065;-86
2022/11/28 10:18:01;;;;;;;20.73;19.13;;;11.30;99.90;;;;;;4993556;28;20046;-86
2022/11/28 10:20:38;;;;;;;17.73;16.50;;;11.30;99.90;;;;;;4990838;28;20054;-85
2022/11/28 10:23:12;;;;;;;21.48;18.00;;;11.30;99.90;;;;;;4992254;28;20053;-87
2022/11/28 10:25:44;;;;;;;17.05;15.65;;;11.40;99.90;;;;;;4992165;28;20054;-87
2022/11/28 10:28:27;;;;;;;17.67;16.17;;;11.40;99.90;;;;;;4953487;28;20035;-89
2022/11/28 10:30:58;;;;;;;25.33;20.65;;;11.30;99.90;;;;;;4977110;28;20407;-88
2022/11/28 10:33:28;;;;;;;25.60;17.95;;;11.40;99.90;;;;;;5007021;28;20031;-89
2022/11/28 10:35:58;;;;;;;45.42;22.85;;;11.40;99.90;;;;;;4973504;28;20440;-91
2022/11/28 10:38:26;;;;;;;20.58;17.65;;;11.40;99.90;;;;;;4976692;28;20059;-89
2022/11/28 10:41:27;;;;;;;15.70;14.15;;;11.50;99.90;;;;;;4966384;28;20042;-89
2022/11/28 10:43:59;;;;;;;27.67;20.13;;;11.60;99.90;;;;;;4943916;28;20058;-88
2022/11/28 10:46:31;;;;;;;36.25;22.15;;;11.60;99.90;;;;;;4987053;28;20058;-89
2022/11/28 10:49:19;;;;;;;21.65;17.40;;;11.60;99.90;;;;;;4990236;28;20483;-84
2022/11/28 10:51:52;;;;;;;21.17;17.17;;;11.60;99.90;;;;;;5007268;28;20037;-86
2022/11/28 10:54:29;;;;;;;16.67;15.20;;;11.60;99.90;;;;;;5024276;28;20478;-85
2022/11/28 10:57:12;;;;;;;22.65;18.33;;;11.70;99.90;;;;;;4999253;28;20384;-85
2022/11/28 10:59:47;;;;;;;24.58;19.55;;;11.70;99.90;;;;;;5001596;28;20045;-83
2022/11/28 11:02:50;;;;;;;18.65;16.95;;;11.80;99.90;;;;;;4971923;28;20041;-85
2022/11/28 11:05:20;;;;;;;14.18;13.02;;;11.80;99.90;;;;;;4921008;29;20052;-85
2022/11/28 11:07:52;;;;;;;17.38;14.43;;;11.80;99.90;;;;;;4934194;29;20039;-87
2022/11/28 11:10:51;;;;;;;16.48;14.88;;;11.80;99.90;;;;;;4945584;29;20058;-86
2022/11/28 11:13:25;;;;;;;17.27;15.77;;;11.80;99.90;;;;;;4904569;29;20046;-87
2022/11/28 11:16:06;;;;;;;13.63;12.73;;;11.80;99.90;;;;;;4934417;29;20633;-86
2022/11/28 11:18:34;;;;;;;14.95;13.73;;;11.80;99.90;;;;;;4915451;29;20036;-87
2022/11/28 11:21:05;;;;;;;14.10;13.02;;;11.80;99.90;;;;;;4916280;29;20520;-87
2022/11/28 11:23:32;;;;;;;14.50;13.18;;;11.90;99.90;;;;;;4920631;29;20140;-86
2022/11/28 11:25:58;;;;;;;15.48;14.52;;;11.90;99.90;;;;;;4930355;29;20579;-85
2022/11/28 11:28:31;;;;;;;15.95;14.75;;;11.90;99.90;;;;;;4917384;29;20027;-87
2022/11/28 11:31:04;;;;;;;21.63;19.90;;;12.00;99.90;;;;;;4919377;29;20066;-87
2022/11/28 11:33:34;;;;;;;16.05;14.85;;;12.10;99.90;;;;;;4899512;29;20032;-88
2022/11/28 11:36:02;;;;;;;22.38;20.67;;;12.10;99.90;;;;;;4919086;29;20046;-86
2022/11/28 11:38:29;;;;;;;14.80;13.90;;;12.10;99.90;;;;;;4908391;28;20046;-84
2022/11/28 11:40:55;;;;;;;18.38;17.13;;;12.10;99.90;;;;;;4972850;28;20447;-87
2022/11/28 11:43:34;;;;;;;15.50;14.40;;;12.10;99.90;;;;;;4973556;28;20467;-85
2022/11/28 11:46:06;;;;;;;22.08;20.35;;;12.00;99.90;;;;;;4957802;28;20053;-86
2022/11/28 11:48:36;;;;;;;16.35;15.15;;;12.10;99.90;;;;;;4980486;28;20057;-86
2022/11/28 11:51:02;;;;;;;17.67;16.10;;;12.20;99.90;;;;;;4990701;28;20045;-88
2022/11/28 11:53:28;;;;;;;15.65;14.55;;;12.30;99.90;;;;;;4974954;28;20387;-89
2022/11/28 11:55:54;;;;;;;13.98;12.60;;;12.30;99.90;;;;;;4974327;28;20054;-86
2022/11/28 11:58:44;;;;;;;13.80;12.90;;;12.40;99.90;;;;;;4965837;28;20038;-90
2022/11/28 12:01:11;;;;;;;14.68;13.18;;;12.50;99.90;;;;;;4968233;28;20038;-91
2022/11/28 12:03:40;;;;;;;13.30;12.30;;;12.60;99.90;;;;;;4974348;28;20034;-87
2022/11/28 12:06:16;;;;;;;12.98;12.07;;;12.60;99.90;;;;;;5006692;28;20049;-88
2022/11/28 12:08:45;;;;;;;12.32;11.40;;;12.70;99.90;;;;;;4990700;28;20027;-87
2022/11/28 12:11:16;;;;;;;13.52;12.43;;;12.70;99.90;;;;;;4987071;28;20471;-84
2022/11/28 12:13:43;;;;;;;13.55;12.52;;;12.60;99.90;;;;;;4995374;28;20042;-85
2022/11/28 12:16:38;;;;;;;15.38;13.93;;;12.50;99.90;;;;;;4974211;28;20046;-86
2022/11/28 12:19:45;;;;;;;14.18;13.07;;;12.30;99.90;;;;;;4950339;28;20039;-84
2022/11/28 12:22:32;;;;;;;11.43;10.65;;;12.20;99.90;;;;;;4946740;28;20034;-90
2022/11/28 12:25:24;;;;;;;14.45;13.25;;;12.10;99.90;;;;;;4934064;28;20058;-86
2022/11/28 12:28:02;;;;;;;11.70;10.85;;;12.00;99.90;;;;;;4953491;28;20039;-88
2022/11/28 12:30:48;;;;;;;15.40;14.38;;;11.80;99.90;;;;;;4951850;28;20051;-85
2022/11/28 12:33:38;;;;;;;15.65;14.38;;;11.80;99.90;;;;;;4969851;28;20055;-89
2022/11/28 12:36:22;;;;;;;14.25;13.45;;;11.80;99.90;;;;;;4983467;28;20050;-87
2022/11/28 12:38:57;;;;;;;13.98;13.15;;;11.80;99.90;;;;;;4965696;28;20042;-88
2022/11/28 12:41:45;;;;;;;14.45;13.55;;;11.80;99.90;;;;;;4969899;28;20038;-86
2022/11/28 12:44:25;;;;;;;14.32;13.48;;;11.70;99.90;;;;;;4983553;28;20050;-88
2022/11/28 12:47:16;;;;;;;12.75;11.73;;;11.60;99.90;;;;;;4969636;28;20146;-88
2022/11/28 12:50:07;;;;;;;13.50;12.80;;;11.50;99.90;;;;;;4968887;28;20043;-88